sensor_id;sensor_type;location;lat;lon;timestamp;temperature;humidity
19552;DHT22;9921;47.186;9.778;2022-09-12T00:01:59;13.30;99.90
19552;DHT22;9921;47.186;9.778;2022-09-12T00:04:26;13.50;99.90
19552;DHT22;9921;47.186;9.778;2022-09-12T00:06:53;13.30;99.90
19552;DHT22;9921;47.186;9.778;2022-09-12T00:09:20;13.40;99.90
19552;DHT22;9921;47.186;9.778;2022-09-12T00:11:48;13.60;99.90
19552;DHT22;9921;47.186;9.778;2022-09-12T00:14:17;13.80;99.90
19552;DHT22;9921;47.186;9.778;2022-09-12T00:16:44;13.80;99.90
19552;DHT22;9921;47.186;9.778;2022-09-12T00:19:11;13.90;99.90
19552;DHT22;9921;47.186;9.778;2022-09-12T00:21:39;14.00;99.90
19552;DHT22;9921;47.186;9.778;2022-09-12T00:24:07;14.10;99.90
19552;DHT22;9921;47.186;9.778;2022-09-12T00:26:34;14.10;99.90
19552;DHT22;9921;47.186;9.778;2022-09-12T00:29:02;14.20;99.90
19552;DHT22;9921;47.186;9.778;2022-09-12T00:31:29;13.70;99.90
19552;DHT22;9921;47.186;9.778;2022-09-12T00:33:57;13.70;99.90
19552;DHT22;9921;47.186;9.778;2022-09-12T00:36:26;13.90;99.90
19552;DHT22;9921;47.186;9.778;2022-09-12T00:38:53;14.00;99.90
19552;DHT22;9921;47.186;9.778;2022-09-12T00:41:23;14.00;99.90
19552;DHT22;9921;47.186;9.778;2022-09-12T00:43:51;13.70;99.90
19552;DHT22;9921;47.186;9.778;2022-09-12T00:46:30;13.10;99.90
19552;DHT22;9921;47.186;9.778;2022-09-12T00:49:00;13.20;99.90
19552;DHT22;9921;47.186;9.778;2022-09-12T00:51:30;13.20;99.90
19552;DHT22;9921;47.186;9.778;2022-09-12T00:54:03;13.40;99.90
19552;DHT22;9921;47.186;9.778;2022-09-12T00:56:32;13.60;99.90
19552;DHT22;9921;47.186;9.778;2022-09-12T00:59:02;13.50;99.90
19552;DHT22;9921;47.186;9.778;2022-09-12T01:01:32;13.40;99.90
19552;DHT22;9921;47.186;9.778;2022-09-12T01:03:59;13.50;99.90
19552;DHT22;9921;47.186;9.778;2022-09-12T01:06:31;13.60;99.90
19552;DHT22;9921;47.186;9.778;2022-09-12T01:09:00;13.80;99.90
19552;DHT22;9921;47.186;9.778;2022-09-12T01:11:30;13.70;99.90
19552;DHT22;9921;47.186;9.778;2022-09-12T01:13:58;13.70;99.90
19552;DHT22;9921;47.186;9.778;2022-09-12T01:16:25;13.80;99.90
19552;DHT22;9921;47.186;9.778;2022-09-12T01:19:02;13.60;99.90
19552;DHT22;9921;47.186;9.778;2022-09-12T01:21:38;13.70;99.90
19552;DHT22;9921;47.186;9.778;2022-09-12T01:24:36;13.60;99.90
19552;DHT22;9921;47.186;9.778;2022-09-12T01:27:46;13.70;99.90
19552;DHT22;9921;47.186;9.778;2022-09-12T01:38:44;13.60;99.90
19552;DHT22;9921;47.186;9.778;2022-09-12T01:41:19;13.80;99.90
19552;DHT22;9921;47.186;9.778;2022-09-12T01:43:53;14.00;99.90
19552;DHT22;9921;47.186;9.778;2022-09-12T01:46:30;14.00;99.90
19552;DHT22;9921;47.186;9.778;2022-09-12T01:49:02;14.00;99.90
19552;DHT22;9921;47.186;9.778;2022-09-12T01:51:36;13.40;99.90
19552;DHT22;9921;47.186;9.778;2022-09-12T01:54:07;13.10;99.90
19552;DHT22;9921;47.186;9.778;2022-09-12T01:56:37;13.30;99.90
19552;DHT22;9921;47.186;9.778;2022-09-12T01:59:09;13.20;99.90
19552;DHT22;9921;47.186;9.778;2022-09-12T02:01:42;13.30;99.90
19552;DHT22;9921;47.186;9.778;2022-09-12T02:04:14;13.40;99.90
19552;DHT22;9921;47.186;9.778;2022-09-12T02:06:45;13.50;99.90
19552;DHT22;9921;47.186;9.778;2022-09-12T02:09:18;13.20;99.90
19552;DHT22;9921;47.186;9.778;2022-09-12T02:11:49;13.00;99.90
19552;DHT22;9921;47.186;9.778;2022-09-12T02:14:21;12.70;99.90
19552;DHT22;9921;47.186;9.778;2022-09-12T02:16:54;13.00;99.90
19552;DHT22;9921;47.186;9.778;2022-09-12T02:19:28;13.00;99.90
19552;DHT22;9921;47.186;9.778;2022-09-12T02:21:58;13.10;99.90
19552;DHT22;9921;47.186;9.778;2022-09-12T02:24:29;13.20;99.90
19552;DHT22;9921;47.186;9.778;2022-09-12T02:27:00;13.10;99.90
19552;DHT22;9921;47.186;9.778;2022-09-12T02:29:28;13.00;99.90
19552;DHT22;9921;47.186;9.778;2022-09-12T02:31:58;12.80;99.90
19552;DHT22;9921;47.186;9.778;2022-09-12T02:34:36;12.60;99.90
19552;DHT22;9921;47.186;9.778;2022-09-12T02:37:11;12.60;99.90
19552;DHT22;9921;47.186;9.778;2022-09-12T02:39:43;12.50;99.90
19552;DHT22;9921;47.186;9.778;2022-09-12T02:42:11;12.30;99.90
19552;DHT22;9921;47.186;9.778;2022-09-12T02:44:38;12.60;99.90
19552;DHT22;9921;47.186;9.778;2022-09-12T02:47:10;12.60;99.90
19552;DHT22;9921;47.186;9.778;2022-09-12T02:49:41;12.80;99.90
19552;DHT22;9921;47.186;9.778;2022-09-12T02:52:08;12.80;99.90
19552;DHT22;9921;47.186;9.778;2022-09-12T02:54:36;12.90;99.90
19552;DHT22;9921;47.186;9.778;2022-09-12T02:57:05;12.60;99.90
19552;DHT22;9921;47.186;9.778;2022-09-12T02:59:40;11.80;99.90
19552;DHT22;9921;47.186;9.778;2022-09-12T03:02:17;11.50;99.90
19552;DHT22;9921;47.186;9.778;2022-09-12T03:04:59;11.50;99.90
19552;DHT22;9921;47.186;9.778;2022-09-12T03:07:39;11.30;99.90
19552;DHT22;9921;47.186;9.778;2022-09-12T03:10:17;11.80;99.90
19552;DHT22;9921;47.186;9.778;2022-09-12T03:12:55;12.00;99.90
19552;DHT22;9921;47.186;9.778;2022-09-12T03:15:36;12.10;99.90
19552;DHT22;9921;47.186;9.778;2022-09-12T03:18:17;12.20;99.90
19552;DHT22;9921;47.186;9.778;2022-09-12T03:20:51;12.30;99.90
19552;DHT22;9921;47.186;9.778;2022-09-12T03:23:24;12.50;99.90
19552;DHT22;9921;47.186;9.778;2022-09-12T03:25:58;12.60;99.90
19552;DHT22;9921;47.186;9.778;2022-09-12T03:28:27;12.70;99.90
19552;DHT22;9921;47.186;9.778;2022-09-12T03:30:54;12.70;99.90
19552;DHT22;9921;47.186;9.778;2022-09-12T03:33:24;12.80;99.90
19552;DHT22;9921;47.186;9.778;2022-09-12T03:35:52;12.90;99.90
19552;DHT22;9921;47.186;9.778;2022-09-12T03:38:20;13.00;99.90
19552;DHT22;9921;47.186;9.778;2022-09-12T03:40:47;12.80;99.90
19552;DHT22;9921;47.186;9.778;2022-09-12T03:43:14;12.60;99.90
19552;DHT22;9921;47.186;9.778;2022-09-12T03:45:40;12.20;99.90
19552;DHT22;9921;47.186;9.778;2022-09-12T03:48:07;12.20;99.90
19552;DHT22;9921;47.186;9.778;2022-09-12T03:50:36;12.10;99.90
19552;DHT22;9921;47.186;9.778;2022-09-12T03:53:03;11.70;99.90
19552;DHT22;9921;47.186;9.778;2022-09-12T03:55:30;11.70;99.90
19552;DHT22;9921;47.186;9.778;2022-09-12T03:57:57;11.90;99.90
19552;DHT22;9921;47.186;9.778;2022-09-12T04:00:23;12.00;99.90
19552;DHT22;9921;47.186;9.778;2022-09-12T04:02:53;12.00;99.90
19552;DHT22;9921;47.186;9.778;2022-09-12T04:05:21;12.10;99.90
19552;DHT22;9921;47.186;9.778;2022-09-12T04:07:49;12.20;99.90
19552;DHT22;9921;47.186;9.778;2022-09-12T04:10:16;12.30;99.90
19552;DHT22;9921;47.186;9.778;2022-09-12T04:12:43;12.40;99.90
19552;DHT22;9921;47.186;9.778;2022-09-12T04:15:10;12.50;99.90
19552;DHT22;9921;47.186;9.778;2022-09-12T04:17:37;12.70;99.90
19552;DHT22;9921;47.186;9.778;2022-09-12T04:20:05;12.70;99.90
19552;DHT22;9921;47.186;9.778;2022-09-12T04:22:32;12.50;99.90
19552;DHT22;9921;47.186;9.778;2022-09-12T04:25:00;12.50;99.90
19552;DHT22;9921;47.186;9.778;2022-09-12T04:27:27;12.10;99.90
19552;DHT22;9921;47.186;9.778;2022-09-12T04:29:54;11.90;99.90
19552;DHT22;9921;47.186;9.778;2022-09-12T04:32:21;11.90;99.90
19552;DHT22;9921;47.186;9.778;2022-09-12T04:34:48;12.00;99.90
19552;DHT22;9921;47.186;9.778;2022-09-12T04:37:17;11.90;99.90
19552;DHT22;9921;47.186;9.778;2022-09-12T04:39:44;12.10;99.90
19552;DHT22;9921;47.186;9.778;2022-09-12T04:42:15;12.00;99.90
19552;DHT22;9921;47.186;9.778;2022-09-12T04:44:42;12.10;99.90
19552;DHT22;9921;47.186;9.778;2022-09-12T04:47:09;12.00;99.90
19552;DHT22;9921;47.186;9.778;2022-09-12T04:49:35;12.20;99.90
19552;DHT22;9921;47.186;9.778;2022-09-12T04:52:02;12.50;99.90
19552;DHT22;9921;47.186;9.778;2022-09-12T04:54:29;12.60;99.90
19552;DHT22;9921;47.186;9.778;2022-09-12T04:56:56;12.40;99.90
19552;DHT22;9921;47.186;9.778;2022-09-12T04:59:24;12.30;99.90
19552;DHT22;9921;47.186;9.778;2022-09-12T05:01:52;12.30;99.90
19552;DHT22;9921;47.186;9.778;2022-09-12T05:04:19;12.30;99.90
19552;DHT22;9921;47.186;9.778;2022-09-12T05:06:46;12.40;99.90
19552;DHT22;9921;47.186;9.778;2022-09-12T05:09:13;12.30;99.90
19552;DHT22;9921;47.186;9.778;2022-09-12T05:11:42;12.30;99.90
19552;DHT22;9921;47.186;9.778;2022-09-12T05:14:09;12.10;99.90
19552;DHT22;9921;47.186;9.778;2022-09-12T05:16:38;11.70;99.90
19552;DHT22;9921;47.186;9.778;2022-09-12T05:19:06;11.80;99.90
19552;DHT22;9921;47.186;9.778;2022-09-12T05:21:33;11.90;99.90
19552;DHT22;9921;47.186;9.778;2022-09-12T05:24:01;12.00;99.90
19552;DHT22;9921;47.186;9.778;2022-09-12T05:26:29;12.30;99.90
19552;DHT22;9921;47.186;9.778;2022-09-12T05:28:56;12.30;99.90
19552;DHT22;9921;47.186;9.778;2022-09-12T05:31:25;12.40;99.90
19552;DHT22;9921;47.186;9.778;2022-09-12T05:33:54;12.30;99.90
19552;DHT22;9921;47.186;9.778;2022-09-12T05:36:23;12.40;99.90
19552;DHT22;9921;47.186;9.778;2022-09-12T05:38:50;12.40;99.90
19552;DHT22;9921;47.186;9.778;2022-09-12T05:41:18;11.70;99.90
19552;DHT22;9921;47.186;9.778;2022-09-12T05:43:46;11.50;99.90
19552;DHT22;9921;47.186;9.778;2022-09-12T05:46:18;11.10;99.90
19552;DHT22;9921;47.186;9.778;2022-09-12T05:48:46;10.80;99.90
19552;DHT22;9921;47.186;9.778;2022-09-12T05:51:16;10.80;99.90
19552;DHT22;9921;47.186;9.778;2022-09-12T05:53:44;11.00;99.90
19552;DHT22;9921;47.186;9.778;2022-09-12T05:56:13;11.30;99.90
19552;DHT22;9921;47.186;9.778;2022-09-12T05:58:41;11.40;99.90
19552;DHT22;9921;47.186;9.778;2022-09-12T06:01:09;11.80;99.90
19552;DHT22;9921;47.186;9.778;2022-09-12T06:03:40;11.90;99.90
19552;DHT22;9921;47.186;9.778;2022-09-12T06:06:07;11.80;99.90
19552;DHT22;9921;47.186;9.778;2022-09-12T06:08:40;11.80;99.90
19552;DHT22;9921;47.186;9.778;2022-09-12T06:11:09;11.70;99.90
19552;DHT22;9921;47.186;9.778;2022-09-12T06:13:38;11.60;99.90
19552;DHT22;9921;47.186;9.778;2022-09-12T06:16:07;11.20;99.90
19552;DHT22;9921;47.186;9.778;2022-09-12T06:18:35;11.30;99.90
19552;DHT22;9921;47.186;9.778;2022-09-12T06:21:03;11.70;99.90
19552;DHT22;9921;47.186;9.778;2022-09-12T06:23:30;12.00;99.90
19552;DHT22;9921;47.186;9.778;2022-09-12T06:25:58;12.00;99.90
19552;DHT22;9921;47.186;9.778;2022-09-12T06:28:26;12.20;99.90
19552;DHT22;9921;47.186;9.778;2022-09-12T06:30:52;12.30;99.90
19552;DHT22;9921;47.186;9.778;2022-09-12T06:33:19;12.40;99.90
19552;DHT22;9921;47.186;9.778;2022-09-12T06:35:46;12.50;99.90
19552;DHT22;9921;47.186;9.778;2022-09-12T06:38:13;12.50;99.90
19552;DHT22;9921;47.186;9.778;2022-09-12T06:40:41;12.20;99.90
19552;DHT22;9921;47.186;9.778;2022-09-12T06:43:11;12.30;99.90
19552;DHT22;9921;47.186;9.778;2022-09-12T06:45:38;12.60;99.90
19552;DHT22;9921;47.186;9.778;2022-09-12T06:48:05;12.80;99.90
19552;DHT22;9921;47.186;9.778;2022-09-12T06:50:32;13.00;99.90
19552;DHT22;9921;47.186;9.778;2022-09-12T06:52:58;13.20;99.90
19552;DHT22;9921;47.186;9.778;2022-09-12T06:55:25;13.20;99.90
19552;DHT22;9921;47.186;9.778;2022-09-12T06:57:53;13.20;99.90
19552;DHT22;9921;47.186;9.778;2022-09-12T07:00:22;13.30;99.90
19552;DHT22;9921;47.186;9.778;2022-09-12T07:02:52;13.50;99.90
19552;DHT22;9921;47.186;9.778;2022-09-12T07:05:19;13.50;99.90
19552;DHT22;9921;47.186;9.778;2022-09-12T07:07:46;13.70;99.90
19552;DHT22;9921;47.186;9.778;2022-09-12T07:10:13;13.80;99.90
19552;DHT22;9921;47.186;9.778;2022-09-12T07:12:40;13.80;99.90
19552;DHT22;9921;47.186;9.778;2022-09-12T07:15:08;13.80;99.90
19552;DHT22;9921;47.186;9.778;2022-09-12T07:17:36;13.70;99.90
19552;DHT22;9921;47.186;9.778;2022-09-12T07:20:04;13.70;99.90
19552;DHT22;9921;47.186;9.778;2022-09-12T07:22:31;13.80;99.90
19552;DHT22;9921;47.186;9.778;2022-09-12T07:24:58;13.90;99.90
19552;DHT22;9921;47.186;9.778;2022-09-12T07:27:25;14.10;99.90
19552;DHT22;9921;47.186;9.778;2022-09-12T07:29:52;14.40;99.90
19552;DHT22;9921;47.186;9.778;2022-09-12T07:32:18;14.50;99.90
19552;DHT22;9921;47.186;9.778;2022-09-12T07:34:47;14.60;99.90
19552;DHT22;9921;47.186;9.778;2022-09-12T07:37:14;14.60;99.90
19552;DHT22;9921;47.186;9.778;2022-09-12T07:39:41;14.70;99.90
19552;DHT22;9921;47.186;9.778;2022-09-12T07:42:08;14.80;99.90
19552;DHT22;9921;47.186;9.778;2022-09-12T07:44:37;14.90;99.90
19552;DHT22;9921;47.186;9.778;2022-09-12T07:47:04;15.00;99.90
19552;DHT22;9921;47.186;9.778;2022-09-12T07:49:30;15.10;99.90
19552;DHT22;9921;47.186;9.778;2022-09-12T07:51:59;15.20;99.90
19552;DHT22;9921;47.186;9.778;2022-09-12T07:54:25;15.30;99.90
19552;DHT22;9921;47.186;9.778;2022-09-12T07:56:52;15.40;99.90
19552;DHT22;9921;47.186;9.778;2022-09-12T07:59:19;15.50;99.90
19552;DHT22;9921;47.186;9.778;2022-09-12T08:01:46;15.70;99.90
19552;DHT22;9921;47.186;9.778;2022-09-12T08:04:13;15.70;99.90
19552;DHT22;9921;47.186;9.778;2022-09-12T08:06:40;15.80;99.90
19552;DHT22;9921;47.186;9.778;2022-09-12T08:09:08;15.90;99.90
19552;DHT22;9921;47.186;9.778;2022-09-12T08:11:36;16.00;99.90
19552;DHT22;9921;47.186;9.778;2022-09-12T08:14:03;16.20;99.90
19552;DHT22;9921;47.186;9.778;2022-09-12T08:16:31;16.30;99.90
19552;DHT22;9921;47.186;9.778;2022-09-12T08:18:59;16.40;99.90
19552;DHT22;9921;47.186;9.778;2022-09-12T08:21:28;16.50;99.90
19552;DHT22;9921;47.186;9.778;2022-09-12T08:23:57;16.70;99.90
19552;DHT22;9921;47.186;9.778;2022-09-12T08:26:26;16.70;99.90
19552;DHT22;9921;47.186;9.778;2022-09-12T08:28:53;16.80;99.90
19552;DHT22;9921;47.186;9.778;2022-09-12T08:31:22;16.90;99.90
19552;DHT22;9921;47.186;9.778;2022-09-12T08:33:50;17.10;99.90
19552;DHT22;9921;47.186;9.778;2022-09-12T08:36:18;17.10;99.90
19552;DHT22;9921;47.186;9.778;2022-09-12T08:38:48;17.30;99.90
19552;DHT22;9921;47.186;9.778;2022-09-12T08:41:22;17.50;99.90
19552;DHT22;9921;47.186;9.778;2022-09-12T08:44:26;18.00;99.90
19552;DHT22;9921;47.186;9.778;2022-09-12T08:47:10;18.60;99.90
19552;DHT22;9921;47.186;9.778;2022-09-12T08:49:47;19.10;99.90
19552;DHT22;9921;47.186;9.778;2022-09-12T08:52:20;19.30;99.90
19552;DHT22;9921;47.186;9.778;2022-09-12T08:54:47;19.60;99.90
19552;DHT22;9921;47.186;9.778;2022-09-12T08:57:15;19.80;99.90
19552;DHT22;9921;47.186;9.778;2022-09-12T08:59:45;20.10;99.90
19552;DHT22;9921;47.186;9.778;2022-09-12T09:02:37;20.40;99.90
19552;DHT22;9921;47.186;9.778;2022-09-12T09:05:17;20.90;99.90
19552;DHT22;9921;47.186;9.778;2022-09-12T09:10:52;24.80;99.90
19552;DHT22;9921;47.186;9.778;2022-09-12T09:13:32;27.80;99.80
19552;DHT22;9921;47.186;9.778;2022-09-12T09:16:23;30.20;93.10
19552;DHT22;9921;47.186;9.778;2022-09-12T09:18:51;32.40;85.90
19552;DHT22;9921;47.186;9.778;2022-09-12T09:21:24;33.10;78.00
19552;DHT22;9921;47.186;9.778;2022-09-12T09:23:58;33.80;72.80
19552;DHT22;9921;47.186;9.778;2022-09-12T09:26:29;34.50;69.60
19552;DHT22;9921;47.186;9.778;2022-09-12T09:29:05;35.60;65.70
19552;DHT22;9921;47.186;9.778;2022-09-12T09:31:37;36.40;63.20
19552;DHT22;9921;47.186;9.778;2022-09-12T09:34:11;36.60;60.70
19552;DHT22;9921;47.186;9.778;2022-09-12T09:36:46;36.50;58.40
19552;DHT22;9921;47.186;9.778;2022-09-12T09:39:22;36.50;57.30
19552;DHT22;9921;47.186;9.778;2022-09-12T09:42:00;37.20;55.80
19552;DHT22;9921;47.186;9.778;2022-09-12T09:44:30;37.70;53.80
19552;DHT22;9921;47.186;9.778;2022-09-12T09:46:59;37.90;53.00
19552;DHT22;9921;47.186;9.778;2022-09-12T09:49:28;37.90;52.20
19552;DHT22;9921;47.186;9.778;2022-09-12T09:51:57;37.90;51.70
19552;DHT22;9921;47.186;9.778;2022-09-12T09:54:28;38.20;51.10
19552;DHT22;9921;47.186;9.778;2022-09-12T09:56:57;38.50;51.10
19552;DHT22;9921;47.186;9.778;2022-09-12T09:59:26;38.60;50.80
19552;DHT22;9921;47.186;9.778;2022-09-12T10:01:55;38.70;50.00
19552;DHT22;9921;47.186;9.778;2022-09-12T10:04:25;38.50;50.30
19552;DHT22;9921;47.186;9.778;2022-09-12T10:06:53;38.20;49.80
19552;DHT22;9921;47.186;9.778;2022-09-12T10:09:24;38.70;50.00
19552;DHT22;9921;47.186;9.778;2022-09-12T10:11:53;39.00;49.60
19552;DHT22;9921;47.186;9.778;2022-09-12T10:14:41;39.10;49.40
19552;DHT22;9921;47.186;9.778;2022-09-12T10:17:23;39.60;50.50
19552;DHT22;9921;47.186;9.778;2022-09-12T10:19:51;40.30;48.40
19552;DHT22;9921;47.186;9.778;2022-09-12T10:22:20;40.30;46.60
19552;DHT22;9921;47.186;9.778;2022-09-12T10:24:50;40.10;46.80
19552;DHT22;9921;47.186;9.778;2022-09-12T10:27:20;40.30;46.50
19552;DHT22;9921;47.186;9.778;2022-09-12T10:29:51;40.00;46.50
19552;DHT22;9921;47.186;9.778;2022-09-12T10:32:23;39.90;47.10
19552;DHT22;9921;47.186;9.778;2022-09-12T10:34:57;39.70;47.50
19552;DHT22;9921;47.186;9.778;2022-09-12T10:37:29;39.40;47.60
19552;DHT22;9921;47.186;9.778;2022-09-12T10:39:57;39.80;46.70
19552;DHT22;9921;47.186;9.778;2022-09-12T10:42:44;39.30;47.10
19552;DHT22;9921;47.186;9.778;2022-09-12T10:45:23;39.50;46.50
19552;DHT22;9921;47.186;9.778;2022-09-12T10:47:50;39.60;44.60
19552;DHT22;9921;47.186;9.778;2022-09-12T10:50:30;39.70;43.50
19552;DHT22;9921;47.186;9.778;2022-09-12T10:53:17;40.00;42.90
19552;DHT22;9921;47.186;9.778;2022-09-12T10:56:01;40.00;44.00
19552;DHT22;9921;47.186;9.778;2022-09-12T10:58:39;40.90;43.80
19552;DHT22;9921;47.186;9.778;2022-09-12T11:01:16;41.10;42.90
19552;DHT22;9921;47.186;9.778;2022-09-12T11:03:57;40.90;42.30
19552;DHT22;9921;47.186;9.778;2022-09-12T11:06:35;40.90;41.90
19552;DHT22;9921;47.186;9.778;2022-09-12T11:09:11;41.00;42.80
19552;DHT22;9921;47.186;9.778;2022-09-12T11:11:54;40.40;42.20
19552;DHT22;9921;47.186;9.778;2022-09-12T11:14:30;40.40;43.50
19552;DHT22;9921;47.186;9.778;2022-09-12T11:17:10;40.50;42.10
19552;DHT22;9921;47.186;9.778;2022-09-12T11:19:56;40.20;40.90
19552;DHT22;9921;47.186;9.778;2022-09-12T11:22:39;40.20;39.70
19552;DHT22;9921;47.186;9.778;2022-09-12T11:25:17;39.00;42.70
19552;DHT22;9921;47.186;9.778;2022-09-12T11:28:03;39.20;43.50
19552;DHT22;9921;47.186;9.778;2022-09-12T11:30:38;39.20;42.20
19552;DHT22;9921;47.186;9.778;2022-09-12T11:33:25;38.80;45.70
19552;DHT22;9921;47.186;9.778;2022-09-12T11:35:56;39.00;46.80
19552;DHT22;9921;47.186;9.778;2022-09-12T11:38:40;38.60;44.20
19552;DHT22;9921;47.186;9.778;2022-09-12T11:41:16;38.20;45.60
19552;DHT22;9921;47.186;9.778;2022-09-12T11:43:48;37.80;44.50
19552;DHT22;9921;47.186;9.778;2022-09-12T11:46:20;37.70;43.10
19552;DHT22;9921;47.186;9.778;2022-09-12T11:48:52;37.80;46.30
19552;DHT22;9921;47.186;9.778;2022-09-12T11:51:24;37.50;45.90
19552;DHT22;9921;47.186;9.778;2022-09-12T11:54:10;37.30;46.40
19552;DHT22;9921;47.186;9.778;2022-09-12T11:56:41;37.10;47.60
19552;DHT22;9921;47.186;9.778;2022-09-12T11:59:12;36.60;48.10
19552;DHT22;9921;47.186;9.778;2022-09-12T12:01:42;36.10;47.70
19552;DHT22;9921;47.186;9.778;2022-09-12T12:04:11;35.50;50.10
19552;DHT22;9921;47.186;9.778;2022-09-12T12:06:47;35.30;49.50
19552;DHT22;9921;47.186;9.778;2022-09-12T12:09:16;35.30;48.80
19552;DHT22;9921;47.186;9.778;2022-09-12T12:11:47;35.10;50.10
19552;DHT22;9921;47.186;9.778;2022-09-12T12:14:19;35.20;51.20
19552;DHT22;9921;47.186;9.778;2022-09-12T12:16:47;35.10;51.20
19552;DHT22;9921;47.186;9.778;2022-09-12T12:19:31;34.90;52.40
19552;DHT22;9921;47.186;9.778;2022-09-12T12:22:07;34.80;52.70
19552;DHT22;9921;47.186;9.778;2022-09-12T12:25:03;34.80;54.40
19552;DHT22;9921;47.186;9.778;2022-09-12T12:27:52;34.80;53.60
19552;DHT22;9921;47.186;9.778;2022-09-12T12:33:52;34.80;51.40
19552;DHT22;9921;47.186;9.778;2022-09-12T12:36:43;34.30;51.90
19552;DHT22;9921;47.186;9.778;2022-09-12T12:46:05;34.10;51.60
19552;DHT22;9921;47.186;9.778;2022-09-12T12:48:47;33.70;54.80
19552;DHT22;9921;47.186;9.778;2022-09-12T12:51:37;33.60;55.10
19552;DHT22;9921;47.186;9.778;2022-09-12T12:54:26;33.60;53.40
19552;DHT22;9921;47.186;9.778;2022-09-12T12:57:02;33.40;53.90
19552;DHT22;9921;47.186;9.778;2022-09-12T12:59:30;33.50;53.90
19552;DHT22;9921;47.186;9.778;2022-09-12T13:01:59;33.50;55.80
19552;DHT22;9921;47.186;9.778;2022-09-12T13:04:28;33.50;54.60
19552;DHT22;9921;47.186;9.778;2022-09-12T13:06:59;33.60;52.90
19552;DHT22;9921;47.186;9.778;2022-09-12T13:09:30;33.50;51.90
19552;DHT22;9921;47.186;9.778;2022-09-12T13:12:01;33.20;53.90
19552;DHT22;9921;47.186;9.778;2022-09-12T13:14:47;33.10;50.50
19552;DHT22;9921;47.186;9.778;2022-09-12T13:17:21;33.00;50.00
19552;DHT22;9921;47.186;9.778;2022-09-12T13:19:51;33.00;51.10
19552;DHT22;9921;47.186;9.778;2022-09-12T13:22:21;32.90;53.00
19552;DHT22;9921;47.186;9.778;2022-09-12T13:24:48;32.70;53.20
19552;DHT22;9921;47.186;9.778;2022-09-12T13:27:18;32.80;52.80
19552;DHT22;9921;47.186;9.778;2022-09-12T13:29:45;32.80;54.50
19552;DHT22;9921;47.186;9.778;2022-09-12T13:32:13;32.60;51.70
19552;DHT22;9921;47.186;9.778;2022-09-12T13:34:55;32.30;53.90
19552;DHT22;9921;47.186;9.778;2022-09-12T13:37:37;32.20;52.80
19552;DHT22;9921;47.186;9.778;2022-09-12T13:40:21;32.20;52.40
19552;DHT22;9921;47.186;9.778;2022-09-12T13:42:52;32.20;56.80
19552;DHT22;9921;47.186;9.778;2022-09-12T13:45:34;32.10;54.80
19552;DHT22;9921;47.186;9.778;2022-09-12T13:48:03;31.90;55.40
19552;DHT22;9921;47.186;9.778;2022-09-12T13:50:39;31.90;54.90
19552;DHT22;9921;47.186;9.778;2022-09-12T13:53:12;31.90;56.00
19552;DHT22;9921;47.186;9.778;2022-09-12T13:55:41;32.00;58.20
19552;DHT22;9921;47.186;9.778;2022-09-12T13:58:16;31.90;57.20
19552;DHT22;9921;47.186;9.778;2022-09-12T14:00:44;31.60;57.90
19552;DHT22;9921;47.186;9.778;2022-09-12T14:03:23;31.50;59.20
19552;DHT22;9921;47.186;9.778;2022-09-12T14:06:10;31.40;59.40
19552;DHT22;9921;47.186;9.778;2022-09-12T14:08:38;31.50;59.10
19552;DHT22;9921;47.186;9.778;2022-09-12T14:11:07;31.50;58.70
19552;DHT22;9921;47.186;9.778;2022-09-12T14:13:35;31.40;60.80
19552;DHT22;9921;47.186;9.778;2022-09-12T14:16:04;31.30;61.30
19552;DHT22;9921;47.186;9.778;2022-09-12T14:18:35;31.10;59.80
19552;DHT22;9921;47.186;9.778;2022-09-12T14:21:09;30.90;60.80
19552;DHT22;9921;47.186;9.778;2022-09-12T14:23:39;30.90;61.30
19552;DHT22;9921;47.186;9.778;2022-09-12T14:26:09;30.80;59.00
19552;DHT22;9921;47.186;9.778;2022-09-12T14:28:39;30.40;58.50
19552;DHT22;9921;47.186;9.778;2022-09-12T14:31:20;30.20;63.70
19552;DHT22;9921;47.186;9.778;2022-09-12T14:33:50;30.20;64.30
19552;DHT22;9921;47.186;9.778;2022-09-12T14:36:22;30.10;66.50
19552;DHT22;9921;47.186;9.778;2022-09-12T14:38:51;30.20;66.60
19552;DHT22;9921;47.186;9.778;2022-09-12T14:41:25;30.10;63.70
19552;DHT22;9921;47.186;9.778;2022-09-12T14:43:55;30.10;64.70
19552;DHT22;9921;47.186;9.778;2022-09-12T14:46:27;30.00;64.90
19552;DHT22;9921;47.186;9.778;2022-09-12T14:48:59;29.90;65.50
19552;DHT22;9921;47.186;9.778;2022-09-12T14:51:31;29.90;65.60
19552;DHT22;9921;47.186;9.778;2022-09-12T14:53:59;29.80;67.90
19552;DHT22;9921;47.186;9.778;2022-09-12T14:56:38;29.60;67.10
19552;DHT22;9921;47.186;9.778;2022-09-12T14:59:24;29.50;67.20
19552;DHT22;9921;47.186;9.778;2022-09-12T15:05:22;29.40;69.20
19552;DHT22;9921;47.186;9.778;2022-09-12T15:07:56;29.30;69.10
19552;DHT22;9921;47.186;9.778;2022-09-12T15:10:26;29.10;68.90
19552;DHT22;9921;47.186;9.778;2022-09-12T15:13:16;29.00;69.50
19552;DHT22;9921;47.186;9.778;2022-09-12T15:15:45;28.80;70.80
19552;DHT22;9921;47.186;9.778;2022-09-12T15:18:12;28.70;71.10
19552;DHT22;9921;47.186;9.778;2022-09-12T15:20:41;28.70;73.30
19552;DHT22;9921;47.186;9.778;2022-09-12T15:23:15;28.40;73.60
19552;DHT22;9921;47.186;9.778;2022-09-12T15:25:43;28.30;75.30
19552;DHT22;9921;47.186;9.778;2022-09-12T15:28:16;27.90;73.80
19552;DHT22;9921;47.186;9.778;2022-09-12T15:30:44;28.00;72.50
19552;DHT22;9921;47.186;9.778;2022-09-12T15:33:11;27.90;76.20
19552;DHT22;9921;47.186;9.778;2022-09-12T15:35:39;27.70;78.50
19552;DHT22;9921;47.186;9.778;2022-09-12T15:38:06;27.70;76.50
19552;DHT22;9921;47.186;9.778;2022-09-12T15:40:35;27.70;77.00
19552;DHT22;9921;47.186;9.778;2022-09-12T15:43:01;27.70;75.10
19552;DHT22;9921;47.186;9.778;2022-09-12T15:45:30;27.60;77.20
19552;DHT22;9921;47.186;9.778;2022-09-12T15:47:57;27.60;75.00
19552;DHT22;9921;47.186;9.778;2022-09-12T15:50:24;27.50;77.30
19552;DHT22;9921;47.186;9.778;2022-09-12T15:52:53;27.50;76.80
19552;DHT22;9921;47.186;9.778;2022-09-12T15:55:22;27.40;77.70
19552;DHT22;9921;47.186;9.778;2022-09-12T15:57:51;27.30;80.80
19552;DHT22;9921;47.186;9.778;2022-09-12T16:00:18;27.20;80.30
19552;DHT22;9921;47.186;9.778;2022-09-12T16:02:47;27.10;80.60
19552;DHT22;9921;47.186;9.778;2022-09-12T16:05:16;27.00;78.10
19552;DHT22;9921;47.186;9.778;2022-09-12T16:07:43;26.90;78.60
19552;DHT22;9921;47.186;9.778;2022-09-12T16:10:13;26.70;80.80
19552;DHT22;9921;47.186;9.778;2022-09-12T16:12:41;26.70;82.20
19552;DHT22;9921;47.186;9.778;2022-09-12T16:15:14;26.50;81.80
19552;DHT22;9921;47.186;9.778;2022-09-12T16:17:41;26.50;81.40
19552;DHT22;9921;47.186;9.778;2022-09-12T16:20:09;26.40;80.80
19552;DHT22;9921;47.186;9.778;2022-09-12T16:22:36;26.30;82.40
19552;DHT22;9921;47.186;9.778;2022-09-12T16:25:04;26.10;82.70
19552;DHT22;9921;47.186;9.778;2022-09-12T16:27:31;26.10;82.50
19552;DHT22;9921;47.186;9.778;2022-09-12T16:29:58;26.10;81.40
19552;DHT22;9921;47.186;9.778;2022-09-12T16:32:27;26.00;80.10
19552;DHT22;9921;47.186;9.778;2022-09-12T16:34:54;25.90;80.50
19552;DHT22;9921;47.186;9.778;2022-09-12T16:37:20;25.90;82.20